sensor_id;sensor_type;location;lat;lon;timestamp;temperature;humidity
4725;DHT22;2376;53.544;10.226;2023-02-19T00:01:18;8.30;99.90
4725;DHT22;2376;53.544;10.226;2023-02-19T00:03:48;8.30;99.90
4725;DHT22;2376;53.544;10.226;2023-02-19T00:06:15;8.30;99.90
4725;DHT22;2376;53.544;10.226;2023-02-19T00:08:42;8.30;99.90
4725;DHT22;2376;53.544;10.226;2023-02-19T00:11:11;8.30;99.90
4725;DHT22;2376;53.544;10.226;2023-02-19T00:13:40;8.30;99.90
4725;DHT22;2376;53.544;10.226;2023-02-19T00:16:08;8.30;99.90
4725;DHT22;2376;53.544;10.226;2023-02-19T00:18:35;8.30;99.90
4725;DHT22;2376;53.544;10.226;2023-02-19T00:21:03;8.30;99.90
4725;DHT22;2376;53.544;10.226;2023-02-19T00:23:30;8.30;99.90
4725;DHT22;2376;53.544;10.226;2023-02-19T00:26:01;8.30;99.90
4725;DHT22;2376;53.544;10.226;2023-02-19T00:28:30;8.30;99.90
4725;DHT22;2376;53.544;10.226;2023-02-19T00:31:03;8.30;99.90
4725;DHT22;2376;53.544;10.226;2023-02-19T00:33:30;8.30;99.90
4725;DHT22;2376;53.544;10.226;2023-02-19T00:35:59;8.30;99.90
4725;DHT22;2376;53.544;10.226;2023-02-19T00:38:26;8.30;99.90
4725;DHT22;2376;53.544;10.226;2023-02-19T00:40:53;8.40;99.90
4725;DHT22;2376;53.544;10.226;2023-02-19T00:43:20;8.40;99.90
4725;DHT22;2376;53.544;10.226;2023-02-19T00:45:48;8.40;99.90
4725;DHT22;2376;53.544;10.226;2023-02-19T00:48:15;8.40;99.90
4725;DHT22;2376;53.544;10.226;2023-02-19T00:50:42;8.30;99.90
4725;DHT22;2376;53.544;10.226;2023-02-19T00:53:09;8.30;99.90
4725;DHT22;2376;53.544;10.226;2023-02-19T00:55:36;8.40;99.90
4725;DHT22;2376;53.544;10.226;2023-02-19T00:58:03;8.40;99.90
4725;DHT22;2376;53.544;10.226;2023-02-19T01:00:30;8.30;99.90
4725;DHT22;2376;53.544;10.226;2023-02-19T01:02:59;8.40;99.90
4725;DHT22;2376;53.544;10.226;2023-02-19T01:05:26;8.40;99.90
4725;DHT22;2376;53.544;10.226;2023-02-19T01:07:53;8.40;99.90
4725;DHT22;2376;53.544;10.226;2023-02-19T01:10:19;8.40;99.90
4725;DHT22;2376;53.544;10.226;2023-02-19T01:12:52;8.40;99.90
4725;DHT22;2376;53.544;10.226;2023-02-19T01:15:19;8.40;99.90
4725;DHT22;2376;53.544;10.226;2023-02-19T01:17:46;8.40;99.90
4725;DHT22;2376;53.544;10.226;2023-02-19T01:20:15;8.40;99.90
4725;DHT22;2376;53.544;10.226;2023-02-19T01:22:42;8.40;99.90
4725;DHT22;2376;53.544;10.226;2023-02-19T01:25:09;8.40;99.90
4725;DHT22;2376;53.544;10.226;2023-02-19T01:27:36;8.40;99.90
4725;DHT22;2376;53.544;10.226;2023-02-19T01:30:03;8.40;99.90
4725;DHT22;2376;53.544;10.226;2023-02-19T01:32:30;8.40;99.90
4725;DHT22;2376;53.544;10.226;2023-02-19T01:34:57;8.40;99.90
4725;DHT22;2376;53.544;10.226;2023-02-19T01:37:25;8.40;99.90
4725;DHT22;2376;53.544;10.226;2023-02-19T01:39:52;8.40;99.90
4725;DHT22;2376;53.544;10.226;2023-02-19T01:42:19;8.40;99.90
4725;DHT22;2376;53.544;10.226;2023-02-19T01:48:07;8.30;99.90
4725;DHT22;2376;53.544;10.226;2023-02-19T01:50:39;8.30;99.90
4725;DHT22;2376;53.544;10.226;2023-02-19T01:53:11;8.30;99.90
4725;DHT22;2376;53.544;10.226;2023-02-19T01:55:39;8.20;99.90
4725;DHT22;2376;53.544;10.226;2023-02-19T01:58:08;8.00;99.90
4725;DHT22;2376;53.544;10.226;2023-02-19T02:00:36;8.00;99.90
4725;DHT22;2376;53.544;10.226;2023-02-19T02:03:03;7.60;99.90
4725;DHT22;2376;53.544;10.226;2023-02-19T02:05:39;7.10;99.90
4725;DHT22;2376;53.544;10.226;2023-02-19T02:08:09;6.80;99.90
4725;DHT22;2376;53.544;10.226;2023-02-19T02:10:54;6.70;99.90
4725;DHT22;2376;53.544;10.226;2023-02-19T02:13:21;6.90;99.90
4725;DHT22;2376;53.544;10.226;2023-02-19T02:15:53;7.00;99.90
4725;DHT22;2376;53.544;10.226;2023-02-19T02:18:30;6.90;99.90
4725;DHT22;2376;53.544;10.226;2023-02-19T02:21:17;6.90;99.90
4725;DHT22;2376;53.544;10.226;2023-02-19T02:26:54;6.60;99.90
4725;DHT22;2376;53.544;10.226;2023-02-19T02:29:54;6.70;99.90
4725;DHT22;2376;53.544;10.226;2023-02-19T02:32:32;6.50;99.90
4725;DHT22;2376;53.544;10.226;2023-02-19T02:35:04;6.60;99.90
4725;DHT22;2376;53.544;10.226;2023-02-19T02:37:36;6.80;99.90
4725;DHT22;2376;53.544;10.226;2023-02-19T02:40:06;6.80;99.90
4725;DHT22;2376;53.544;10.226;2023-02-19T02:42:34;6.40;99.90
4725;DHT22;2376;53.544;10.226;2023-02-19T02:45:22;6.70;99.90
4725;DHT22;2376;53.544;10.226;2023-02-19T02:48:15;6.70;99.90
4725;DHT22;2376;53.544;10.226;2023-02-19T02:50:45;6.60;99.90
4725;DHT22;2376;53.544;10.226;2023-02-19T02:53:17;6.80;99.90
4725;DHT22;2376;53.544;10.226;2023-02-19T02:56:03;7.10;99.90
4725;DHT22;2376;53.544;10.226;2023-02-19T02:58:30;7.10;99.90
4725;DHT22;2376;53.544;10.226;2023-02-19T03:01:02;7.20;99.90
4725;DHT22;2376;53.544;10.226;2023-02-19T03:03:52;7.20;99.90
4725;DHT22;2376;53.544;10.226;2023-02-19T03:06:21;7.20;99.90
4725;DHT22;2376;53.544;10.226;2023-02-19T03:08:53;7.10;99.90
4725;DHT22;2376;53.544;10.226;2023-02-19T03:11:22;7.20;99.90
4725;DHT22;2376;53.544;10.226;2023-02-19T03:14:11;7.30;99.90
4725;DHT22;2376;53.544;10.226;2023-02-19T03:17:03;7.30;99.90
4725;DHT22;2376;53.544;10.226;2023-02-19T03:19:55;7.20;99.90
4725;DHT22;2376;53.544;10.226;2023-02-19T03:22:26;7.30;99.90
4725;DHT22;2376;53.544;10.226;2023-02-19T03:24:57;7.30;99.90
4725;DHT22;2376;53.544;10.226;2023-02-19T03:27:45;7.40;99.90
4725;DHT22;2376;53.544;10.226;2023-02-19T03:30:16;7.40;99.90
4725;DHT22;2376;53.544;10.226;2023-02-19T03:32:47;7.40;99.90
4725;DHT22;2376;53.544;10.226;2023-02-19T03:35:18;7.50;99.90
4725;DHT22;2376;53.544;10.226;2023-02-19T03:37:49;7.50;99.90
4725;DHT22;2376;53.544;10.226;2023-02-19T03:40:18;7.50;99.90
4725;DHT22;2376;53.544;10.226;2023-02-19T03:42:55;7.50;99.90
4725;DHT22;2376;53.544;10.226;2023-02-19T03:45:30;7.50;99.90
4725;DHT22;2376;53.544;10.226;2023-02-19T03:51:01;7.60;99.90
4725;DHT22;2376;53.544;10.226;2023-02-19T03:53:33;7.60;99.90
4725;DHT22;2376;53.544;10.226;2023-02-19T03:56:07;7.60;99.90
4725;DHT22;2376;53.544;10.226;2023-02-19T03:58:41;7.60;99.90
4725;DHT22;2376;53.544;10.226;2023-02-19T04:01:14;7.60;99.90
4725;DHT22;2376;53.544;10.226;2023-02-19T04:03:47;7.60;99.90
4725;DHT22;2376;53.544;10.226;2023-02-19T04:06:19;7.50;99.90
4725;DHT22;2376;53.544;10.226;2023-02-19T04:08:52;7.50;99.90
4725;DHT22;2376;53.544;10.226;2023-02-19T04:11:21;7.50;99.90
4725;DHT22;2376;53.544;10.226;2023-02-19T04:13:54;7.50;99.90
4725;DHT22;2376;53.544;10.226;2023-02-19T04:16:25;7.50;99.90
4725;DHT22;2376;53.544;10.226;2023-02-19T04:18:57;7.50;99.90
4725;DHT22;2376;53.544;10.226;2023-02-19T04:21:25;7.50;99.90
4725;DHT22;2376;53.544;10.226;2023-02-19T04:23:55;7.50;99.90
4725;DHT22;2376;53.544;10.226;2023-02-19T04:26:24;7.50;99.90
4725;DHT22;2376;53.544;10.226;2023-02-19T04:28:53;7.50;99.90
4725;DHT22;2376;53.544;10.226;2023-02-19T04:31:20;7.50;99.90
4725;DHT22;2376;53.544;10.226;2023-02-19T04:33:46;7.50;99.90
4725;DHT22;2376;53.544;10.226;2023-02-19T04:36:15;7.50;99.90
4725;DHT22;2376;53.544;10.226;2023-02-19T04:38:41;7.40;99.90
4725;DHT22;2376;53.544;10.226;2023-02-19T04:41:08;7.40;99.90
4725;DHT22;2376;53.544;10.226;2023-02-19T04:43:35;7.40;99.90
4725;DHT22;2376;53.544;10.226;2023-02-19T04:46:02;7.40;99.90
4725;DHT22;2376;53.544;10.226;2023-02-19T04:48:29;7.40;99.90
4725;DHT22;2376;53.544;10.226;2023-02-19T04:50:56;7.40;99.90
4725;DHT22;2376;53.544;10.226;2023-02-19T04:53:24;7.40;99.90
4725;DHT22;2376;53.544;10.226;2023-02-19T04:55:51;7.40;99.90
4725;DHT22;2376;53.544;10.226;2023-02-19T04:58:19;7.40;99.90
4725;DHT22;2376;53.544;10.226;2023-02-19T05:00:50;7.40;99.90
4725;DHT22;2376;53.544;10.226;2023-02-19T05:03:17;7.40;99.90
4725;DHT22;2376;53.544;10.226;2023-02-19T05:05:44;7.40;99.90
4725;DHT22;2376;53.544;10.226;2023-02-19T05:08:11;7.40;99.90
4725;DHT22;2376;53.544;10.226;2023-02-19T05:10:39;7.40;99.90
4725;DHT22;2376;53.544;10.226;2023-02-19T05:13:06;7.40;99.90
4725;DHT22;2376;53.544;10.226;2023-02-19T05:15:33;7.40;99.90
4725;DHT22;2376;53.544;10.226;2023-02-19T05:18:00;7.40;99.90
4725;DHT22;2376;53.544;10.226;2023-02-19T05:20:27;7.40;99.90
4725;DHT22;2376;53.544;10.226;2023-02-19T05:22:53;7.40;99.90
4725;DHT22;2376;53.544;10.226;2023-02-19T05:25:20;7.40;99.90
4725;DHT22;2376;53.544;10.226;2023-02-19T05:27:48;7.40;99.90
4725;DHT22;2376;53.544;10.226;2023-02-19T05:30:35;7.40;99.90
4725;DHT22;2376;53.544;10.226;2023-02-19T05:33:02;7.40;99.90
4725;DHT22;2376;53.544;10.226;2023-02-19T05:35:29;7.40;99.90
4725;DHT22;2376;53.544;10.226;2023-02-19T05:37:56;7.40;99.90
4725;DHT22;2376;53.544;10.226;2023-02-19T05:40:22;7.30;99.90
4725;DHT22;2376;53.544;10.226;2023-02-19T05:42:50;7.30;99.90
4725;DHT22;2376;53.544;10.226;2023-02-19T05:45:17;7.20;99.90
4725;DHT22;2376;53.544;10.226;2023-02-19T05:47:44;7.20;99.90
4725;DHT22;2376;53.544;10.226;2023-02-19T05:50:11;7.20;99.90
4725;DHT22;2376;53.544;10.226;2023-02-19T05:52:38;7.10;99.90
4725;DHT22;2376;53.544;10.226;2023-02-19T05:55:05;7.10;99.90
4725;DHT22;2376;53.544;10.226;2023-02-19T05:57:32;7.10;99.90
4725;DHT22;2376;53.544;10.226;2023-02-19T06:00:00;7.10;99.90
4725;DHT22;2376;53.544;10.226;2023-02-19T06:02:27;7.00;99.90
4725;DHT22;2376;53.544;10.226;2023-02-19T06:04:54;7.00;99.90
4725;DHT22;2376;53.544;10.226;2023-02-19T06:07:20;7.00;99.90
4725;DHT22;2376;53.544;10.226;2023-02-19T06:09:49;7.00;99.90
4725;DHT22;2376;53.544;10.226;2023-02-19T06:12:16;6.90;99.90
4725;DHT22;2376;53.544;10.226;2023-02-19T06:14:42;6.90;99.90
4725;DHT22;2376;53.544;10.226;2023-02-19T06:17:10;6.90;99.90
4725;DHT22;2376;53.544;10.226;2023-02-19T06:19:37;6.80;99.90
4725;DHT22;2376;53.544;10.226;2023-02-19T06:22:04;6.80;99.90
4725;DHT22;2376;53.544;10.226;2023-02-19T06:24:31;6.80;99.90
4725;DHT22;2376;53.544;10.226;2023-02-19T06:26:58;6.80;99.90
4725;DHT22;2376;53.544;10.226;2023-02-19T06:29:25;6.80;99.90
4725;DHT22;2376;53.544;10.226;2023-02-19T06:31:52;6.70;99.90
4725;DHT22;2376;53.544;10.226;2023-02-19T06:34:20;6.70;99.90
4725;DHT22;2376;53.544;10.226;2023-02-19T06:36:48;6.70;99.90
4725;DHT22;2376;53.544;10.226;2023-02-19T06:39:15;6.70;99.90
4725;DHT22;2376;53.544;10.226;2023-02-19T06:41:42;6.80;99.90
4725;DHT22;2376;53.544;10.226;2023-02-19T06:44:08;6.80;99.90
4725;DHT22;2376;53.544;10.226;2023-02-19T06:46:35;6.80;99.90
4725;DHT22;2376;53.544;10.226;2023-02-19T06:49:03;6.80;99.90
4725;DHT22;2376;53.544;10.226;2023-02-19T06:51:31;6.80;99.90
4725;DHT22;2376;53.544;10.226;2023-02-19T06:53:58;6.90;99.90
4725;DHT22;2376;53.544;10.226;2023-02-19T06:56:28;6.80;99.90
4725;DHT22;2376;53.544;10.226;2023-02-19T06:58:56;6.80;99.90
4725;DHT22;2376;53.544;10.226;2023-02-19T07:01:25;6.80;99.90
4725;DHT22;2376;53.544;10.226;2023-02-19T07:03:52;6.80;99.90
4725;DHT22;2376;53.544;10.226;2023-02-19T07:06:19;6.80;99.90
4725;DHT22;2376;53.544;10.226;2023-02-19T07:08:48;6.90;99.90
4725;DHT22;2376;53.544;10.226;2023-02-19T07:11:15;6.90;99.90
4725;DHT22;2376;53.544;10.226;2023-02-19T07:13:43;6.90;99.90
4725;DHT22;2376;53.544;10.226;2023-02-19T07:16:11;6.80;99.90
4725;DHT22;2376;53.544;10.226;2023-02-19T07:18:38;6.90;99.90
4725;DHT22;2376;53.544;10.226;2023-02-19T07:21:07;6.90;99.90
4725;DHT22;2376;53.544;10.226;2023-02-19T07:23:34;6.90;99.90
4725;DHT22;2376;53.544;10.226;2023-02-19T07:26:03;6.90;99.90
4725;DHT22;2376;53.544;10.226;2023-02-19T07:28:30;6.90;99.90
4725;DHT22;2376;53.544;10.226;2023-02-19T07:30:59;6.90;99.90
4725;DHT22;2376;53.544;10.226;2023-02-19T07:33:26;6.90;99.90
4725;DHT22;2376;53.544;10.226;2023-02-19T07:35:53;6.90;99.90
4725;DHT22;2376;53.544;10.226;2023-02-19T07:38:22;7.00;99.90
4725;DHT22;2376;53.544;10.226;2023-02-19T07:40:52;6.90;99.90
4725;DHT22;2376;53.544;10.226;2023-02-19T07:43:20;7.00;99.90
4725;DHT22;2376;53.544;10.226;2023-02-19T07:45:48;7.00;99.90
4725;DHT22;2376;53.544;10.226;2023-02-19T07:48:15;7.00;99.90
4725;DHT22;2376;53.544;10.226;2023-02-19T07:50:46;6.90;99.90
4725;DHT22;2376;53.544;10.226;2023-02-19T07:53:16;7.00;99.90
4725;DHT22;2376;53.544;10.226;2023-02-19T07:55:42;7.00;99.90
4725;DHT22;2376;53.544;10.226;2023-02-19T07:58:09;7.10;99.90
4725;DHT22;2376;53.544;10.226;2023-02-19T08:00:37;7.10;99.90
4725;DHT22;2376;53.544;10.226;2023-02-19T08:03:04;7.10;99.90
4725;DHT22;2376;53.544;10.226;2023-02-19T08:05:32;7.10;99.90
4725;DHT22;2376;53.544;10.226;2023-02-19T08:07:59;7.10;99.90
4725;DHT22;2376;53.544;10.226;2023-02-19T08:10:26;7.10;99.90
4725;DHT22;2376;53.544;10.226;2023-02-19T08:13:12;7.10;99.90
4725;DHT22;2376;53.544;10.226;2023-02-19T08:15:50;7.10;99.90
4725;DHT22;2376;53.544;10.226;2023-02-19T08:18:17;7.10;99.90
4725;DHT22;2376;53.544;10.226;2023-02-19T08:20:45;7.10;99.90
4725;DHT22;2376;53.544;10.226;2023-02-19T08:23:12;7.10;99.90
4725;DHT22;2376;53.544;10.226;2023-02-19T08:25:40;7.20;99.90
4725;DHT22;2376;53.544;10.226;2023-02-19T08:28:08;7.20;99.90
4725;DHT22;2376;53.544;10.226;2023-02-19T08:30:36;7.20;99.90
4725;DHT22;2376;53.544;10.226;2023-02-19T08:33:06;7.20;99.90
4725;DHT22;2376;53.544;10.226;2023-02-19T08:35:34;7.20;99.90
4725;DHT22;2376;53.544;10.226;2023-02-19T08:38:01;7.30;99.90
4725;DHT22;2376;53.544;10.226;2023-02-19T08:40:28;7.30;99.90
4725;DHT22;2376;53.544;10.226;2023-02-19T08:42:57;7.40;99.90
4725;DHT22;2376;53.544;10.226;2023-02-19T08:45:27;7.40;99.90
4725;DHT22;2376;53.544;10.226;2023-02-19T08:47:53;7.40;99.90
4725;DHT22;2376;53.544;10.226;2023-02-19T08:50:22;7.50;99.90
4725;DHT22;2376;53.544;10.226;2023-02-19T08:52:48;7.40;99.90
4725;DHT22;2376;53.544;10.226;2023-02-19T08:55:15;7.40;99.90
4725;DHT22;2376;53.544;10.226;2023-02-19T08:57:42;7.50;99.90
4725;DHT22;2376;53.544;10.226;2023-02-19T09:00:11;7.50;99.90
4725;DHT22;2376;53.544;10.226;2023-02-19T09:02:38;7.50;99.90
4725;DHT22;2376;53.544;10.226;2023-02-19T09:05:05;7.60;99.90
4725;DHT22;2376;53.544;10.226;2023-02-19T09:07:33;7.60;99.90
4725;DHT22;2376;53.544;10.226;2023-02-19T09:10:00;7.60;99.90
4725;DHT22;2376;53.544;10.226;2023-02-19T09:12:26;7.60;99.90
4725;DHT22;2376;53.544;10.226;2023-02-19T09:14:53;7.60;99.90
4725;DHT22;2376;53.544;10.226;2023-02-19T09:17:20;7.70;99.90
4725;DHT22;2376;53.544;10.226;2023-02-19T09:19:47;7.70;99.90
4725;DHT22;2376;53.544;10.226;2023-02-19T09:22:14;7.70;99.90
4725;DHT22;2376;53.544;10.226;2023-02-19T09:24:43;7.80;99.90
4725;DHT22;2376;53.544;10.226;2023-02-19T09:27:14;7.90;99.90
4725;DHT22;2376;53.544;10.226;2023-02-19T09:29:41;7.90;99.90
4725;DHT22;2376;53.544;10.226;2023-02-19T09:32:08;7.80;99.90
4725;DHT22;2376;53.544;10.226;2023-02-19T09:34:35;7.90;99.90
4725;DHT22;2376;53.544;10.226;2023-02-19T09:37:03;7.90;99.90
4725;DHT22;2376;53.544;10.226;2023-02-19T09:39:30;8.00;99.90
4725;DHT22;2376;53.544;10.226;2023-02-19T09:42:02;8.10;99.90
4725;DHT22;2376;53.544;10.226;2023-02-19T09:44:31;8.10;99.90
4725;DHT22;2376;53.544;10.226;2023-02-19T09:47:00;8.10;99.90
4725;DHT22;2376;53.544;10.226;2023-02-19T09:49:32;8.10;99.90
4725;DHT22;2376;53.544;10.226;2023-02-19T09:52:01;8.10;99.90
4725;DHT22;2376;53.544;10.226;2023-02-19T09:54:30;8.20;99.90
4725;DHT22;2376;53.544;10.226;2023-02-19T09:57:01;8.20;99.90
4725;DHT22;2376;53.544;10.226;2023-02-19T09:59:30;8.20;99.90
4725;DHT22;2376;53.544;10.226;2023-02-19T10:02:03;8.20;99.90
4725;DHT22;2376;53.544;10.226;2023-02-19T10:04:30;8.20;99.90
4725;DHT22;2376;53.544;10.226;2023-02-19T10:06:57;8.20;99.90
4725;DHT22;2376;53.544;10.226;2023-02-19T10:09:29;8.20;99.90
4725;DHT22;2376;53.544;10.226;2023-02-19T10:11:57;8.20;99.90
4725;DHT22;2376;53.544;10.226;2023-02-19T10:14:31;8.30;99.90
4725;DHT22;2376;53.544;10.226;2023-02-19T10:17:00;8.30;99.90
4725;DHT22;2376;53.544;10.226;2023-02-19T10:19:29;8.30;99.90
4725;DHT22;2376;53.544;10.226;2023-02-19T10:21:56;8.40;99.90
4725;DHT22;2376;53.544;10.226;2023-02-19T10:24:27;8.30;99.90
4725;DHT22;2376;53.544;10.226;2023-02-19T10:26:55;8.40;99.90
4725;DHT22;2376;53.544;10.226;2023-02-19T10:29:22;8.60;99.90
4725;DHT22;2376;53.544;10.226;2023-02-19T10:32:10;8.60;99.90
4725;DHT22;2376;53.544;10.226;2023-02-19T10:34:37;8.70;99.90
4725;DHT22;2376;53.544;10.226;2023-02-19T10:37:11;8.70;99.90
4725;DHT22;2376;53.544;10.226;2023-02-19T10:39:41;8.80;99.90
4725;DHT22;2376;53.544;10.226;2023-02-19T10:42:17;8.90;99.90
4725;DHT22;2376;53.544;10.226;2023-02-19T10:44:47;8.90;99.90
4725;DHT22;2376;53.544;10.226;2023-02-19T10:47:18;8.80;99.90
4725;DHT22;2376;53.544;10.226;2023-02-19T10:49:46;8.70;99.90
4725;DHT22;2376;53.544;10.226;2023-02-19T10:52:17;8.70;99.90
4725;DHT22;2376;53.544;10.226;2023-02-19T10:54:45;8.60;99.90
4725;DHT22;2376;53.544;10.226;2023-02-19T10:57:26;8.70;99.90
4725;DHT22;2376;53.544;10.226;2023-02-19T10:59:58;8.90;99.90
4725;DHT22;2376;53.544;10.226;2023-02-19T11:02:29;8.90;99.90
4725;DHT22;2376;53.544;10.226;2023-02-19T11:05:13;9.00;99.90
4725;DHT22;2376;53.544;10.226;2023-02-19T11:07:43;9.10;99.90
4725;DHT22;2376;53.544;10.226;2023-02-19T11:10:21;9.10;99.90
4725;DHT22;2376;53.544;10.226;2023-02-19T11:12:50;9.10;99.90
4725;DHT22;2376;53.544;10.226;2023-02-19T11:15:20;9.10;99.90
4725;DHT22;2376;53.544;10.226;2023-02-19T11:17:56;9.00;99.90
4725;DHT22;2376;53.544;10.226;2023-02-19T11:20:25;9.10;99.90
4725;DHT22;2376;53.544;10.226;2023-02-19T11:22:56;9.10;99.90
4725;DHT22;2376;53.544;10.226;2023-02-19T11:25:24;9.10;99.90
4725;DHT22;2376;53.544;10.226;2023-02-19T11:27:56;9.20;99.90
4725;DHT22;2376;53.544;10.226;2023-02-19T11:30:33;9.40;99.90
4725;DHT22;2376;53.544;10.226;2023-02-19T11:33:19;9.40;99.90
4725;DHT22;2376;53.544;10.226;2023-02-19T11:35:49;9.50;99.90
4725;DHT22;2376;53.544;10.226;2023-02-19T11:38:18;9.60;99.90
4725;DHT22;2376;53.544;10.226;2023-02-19T11:40:51;9.70;99.90
4725;DHT22;2376;53.544;10.226;2023-02-19T11:43:46;9.80;99.90
4725;DHT22;2376;53.544;10.226;2023-02-19T11:46:21;9.80;99.90
4725;DHT22;2376;53.544;10.226;2023-02-19T11:48:56;9.90;99.90
4725;DHT22;2376;53.544;10.226;2023-02-19T11:51:47;9.90;99.90
4725;DHT22;2376;53.544;10.226;2023-02-19T11:54:35;9.70;99.90
4725;DHT22;2376;53.544;10.226;2023-02-19T11:57:11;9.80;99.90
4725;DHT22;2376;53.544;10.226;2023-02-19T11:59:46;9.70;99.80
4725;DHT22;2376;53.544;10.226;2023-02-19T12:02:36;9.80;99.90
4725;DHT22;2376;53.544;10.226;2023-02-19T12:05:17;10.00;99.90
4725;DHT22;2376;53.544;10.226;2023-02-19T12:08:13;10.00;99.10
4725;DHT22;2376;53.544;10.226;2023-02-19T12:10:56;9.90;99.60
4725;DHT22;2376;53.544;10.226;2023-02-19T12:13:32;10.00;99.30
4725;DHT22;2376;53.544;10.226;2023-02-19T12:16:14;10.00;96.50
4725;DHT22;2376;53.544;10.226;2023-02-19T12:22:01;10.20;96.10
4725;DHT22;2376;53.544;10.226;2023-02-19T12:24:49;10.10;93.80
4725;DHT22;2376;53.544;10.226;2023-02-19T12:27:29;10.20;93.90
4725;DHT22;2376;53.544;10.226;2023-02-19T12:30:12;10.30;92.90
4725;DHT22;2376;53.544;10.226;2023-02-19T12:32:52;10.30;94.80
4725;DHT22;2376;53.544;10.226;2023-02-19T12:35:34;10.40;94.40
4725;DHT22;2376;53.544;10.226;2023-02-19T12:38:16;10.40;95.10
4725;DHT22;2376;53.544;10.226;2023-02-19T12:40:56;10.50;96.00
4725;DHT22;2376;53.544;10.226;2023-02-19T12:43:25;10.50;94.90
4725;DHT22;2376;53.544;10.226;2023-02-19T12:45:57;10.50;94.90
4725;DHT22;2376;53.544;10.226;2023-02-19T12:48:30;10.50;96.80
4725;DHT22;2376;53.544;10.226;2023-02-19T12:51:11;10.50;97.80
4725;DHT22;2376;53.544;10.226;2023-02-19T12:53:47;10.60;97.80
4725;DHT22;2376;53.544;10.226;2023-02-19T12:56:22;10.70;97.90
4725;DHT22;2376;53.544;10.226;2023-02-19T12:59:08;10.70;97.90
4725;DHT22;2376;53.544;10.226;2023-02-19T13:02:11;10.70;97.50
4725;DHT22;2376;53.544;10.226;2023-02-19T13:04:43;10.80;98.10
4725;DHT22;2376;53.544;10.226;2023-02-19T13:07:13;10.80;98.30
4725;DHT22;2376;53.544;10.226;2023-02-19T13:09:47;10.70;97.80
4725;DHT22;2376;53.544;10.226;2023-02-19T13:12:19;10.80;97.00
4725;DHT22;2376;53.544;10.226;2023-02-19T13:14:49;10.70;96.70
4725;DHT22;2376;53.544;10.226;2023-02-19T13:17:23;10.70;96.80
4725;DHT22;2376;53.544;10.226;2023-02-19T13:19:55;10.80;92.20
4725;DHT22;2376;53.544;10.226;2023-02-19T13:22:28;10.70;91.70
4725;DHT22;2376;53.544;10.226;2023-02-19T13:25:17;10.70;92.90
4725;DHT22;2376;53.544;10.226;2023-02-19T13:28:09;10.80;95.70
4725;DHT22;2376;53.544;10.226;2023-02-19T13:30:47;10.80;96.40
4725;DHT22;2376;53.544;10.226;2023-02-19T13:33:31;10.80;97.10
4725;DHT22;2376;53.544;10.226;2023-02-19T13:36:08;10.90;98.30
4725;DHT22;2376;53.544;10.226;2023-02-19T13:38:37;10.80;98.30
4725;DHT22;2376;53.544;10.226;2023-02-19T13:41:17;10.60;98.70
4725;DHT22;2376;53.544;10.226;2023-02-19T13:43:45;10.60;99.00
4725;DHT22;2376;53.544;10.226;2023-02-19T13:46:14;10.70;98.60
4725;DHT22;2376;53.544;10.226;2023-02-19T13:48:42;10.60;98.30
4725;DHT22;2376;53.544;10.226;2023-02-19T13:51:38;10.60;97.70
4725;DHT22;2376;53.544;10.226;2023-02-19T13:54:19;10.60;98.00
4725;DHT22;2376;53.544;10.226;2023-02-19T13:56:48;10.70;97.70
4725;DHT22;2376;53.544;10.226;2023-02-19T13:59:33;10.80;98.60
4725;DHT22;2376;53.544;10.226;2023-02-19T14:02:26;10.80;97.90
4725;DHT22;2376;53.544;10.226;2023-02-19T14:04:56;10.90;98.40
4725;DHT22;2376;53.544;10.226;2023-02-19T14:07:50;10.90;99.30
4725;DHT22;2376;53.544;10.226;2023-02-19T14:16:53;11.00;97.90
4725;DHT22;2376;53.544;10.226;2023-02-19T14:19:44;10.90;97.10
4725;DHT22;2376;53.544;10.226;2023-02-19T14:25:40;10.80;99.50
4725;DHT22;2376;53.544;10.226;2023-02-19T14:28:24;10.80;99.80
4725;DHT22;2376;53.544;10.226;2023-02-19T14:30:55;10.80;99.80
4725;DHT22;2376;53.544;10.226;2023-02-19T14:33:26;10.70;99.80
4725;DHT22;2376;53.544;10.226;2023-02-19T14:35:55;10.50;99.60
4725;DHT22;2376;53.544;10.226;2023-02-19T14:38:25;10.50;99.30
4725;DHT22;2376;53.544;10.226;2023-02-19T14:40:54;10.60;99.40
4725;DHT22;2376;53.544;10.226;2023-02-19T14:43:23;10.70;99.20
4725;DHT22;2376;53.544;10.226;2023-02-19T14:45:57;10.80;96.70
4725;DHT22;2376;53.544;10.226;2023-02-19T14:48:29;10.70;92.20
4725;DHT22;2376;53.544;10.226;2023-02-19T14:51:02;10.70;94.30
4725;DHT22;2376;53.544;10.226;2023-02-19T14:53:31;10.60;95.90
4725;DHT22;2376;53.544;10.226;2023-02-19T14:56:00;10.60;96.40
4725;DHT22;2376;53.544;10.226;2023-02-19T14:58:31;10.70;97.70
4725;DHT22;2376;53.544;10.226;2023-02-19T15:00:58;10.70;97.70
4725;DHT22;2376;53.544;10.226;2023-02-19T15:03:34;10.60;97.90
4725;DHT22;2376;53.544;10.226;2023-02-19T15:06:04;10.50;97.90
4725;DHT22;2376;53.544;10.226;2023-02-19T15:08:36;10.30;98.60
4725;DHT22;2376;53.544;10.226;2023-02-19T15:11:07;10.30;99.10
4725;DHT22;2376;53.544;10.226;2023-02-19T15:13:35;10.30;99.50
4725;DHT22;2376;53.544;10.226;2023-02-19T15:16:03;10.20;99.90
4725;DHT22;2376;53.544;10.226;2023-02-19T15:18:30;10.20;99.90
4725;DHT22;2376;53.544;10.226;2023-02-19T15:21:03;10.20;99.90
4725;DHT22;2376;53.544;10.226;2023-02-19T15:23:34;10.00;99.90
4725;DHT22;2376;53.544;10.226;2023-02-19T15:26:04;10.10;99.90
4725;DHT22;2376;53.544;10.226;2023-02-19T15:28:39;10.00;99.90
4725;DHT22;2376;53.544;10.226;2023-02-19T15:31:12;9.90;99.90
4725;DHT22;2376;53.544;10.226;2023-02-19T15:33:47;10.00;99.90
4725;DHT22;2376;53.544;10.226;2023-02-19T15:36:25;10.00;99.90
4725;DHT22;2376;53.544;10.226;2023-02-19T15:38:55;10.10;99.90
4725;DHT22;2376;53.544;10.226;2023-02-19T15:41:25;10.10;99.90
4725;DHT22;2376;53.544;10.226;2023-02-19T15:43:57;10.00;99.90
4725;DHT22;2376;53.544;10.226;2023-02-19T15:46:24;10.00;99.90
4725;DHT22;2376;53.544;10.226;2023-02-19T15:48:57;10.10;99.90
4725;DHT22;2376;53.544;10.226;2023-02-19T15:51:32;10.10;99.90
4725;DHT22;2376;53.544;10.226;2023-02-19T15:54:05;10.20;99.90
4725;DHT22;2376;53.544;10.226;2023-02-19T15:56:39;10.20;99.90
4725;DHT22;2376;53.544;10.226;2023-02-19T15:59:14;10.10;99.90
4725;DHT22;2376;53.544;10.226;2023-02-19T16:01:44;10.10;99.90
4725;DHT22;2376;53.544;10.226;2023-02-19T16:04:12;10.10;99.90
4725;DHT22;2376;53.544;10.226;2023-02-19T16:06:55;10.00;99.90
4725;DHT22;2376;53.544;10.226;2023-02-19T16:09:27;10.00;99.90
4725;DHT22;2376;53.544;10.226;2023-02-19T16:11:56;10.00;99.90
4725;DHT22;2376;53.544;10.226;2023-02-19T16:14:28;9.90;99.90
4725;DHT22;2376;53.544;10.226;2023-02-19T16:16:58;9.90;99.90
4725;DHT22;2376;53.544;10.226;2023-02-19T16:19:28;9.90;99.90
4725;DHT22;2376;53.544;10.226;2023-02-19T16:21:57;9.90;99.90
4725;DHT22;2376;53.544;10.226;2023-02-19T16:24:27;9.90;99.90
4725;DHT22;2376;53.544;10.226;2023-02-19T16:26:56;9.90;99.90
4725;DHT22;2376;53.544;10.226;2023-02-19T16:29:26;9.80;99.90
4725;DHT22;2376;53.544;10.226;2023-02-19T16:31:55;9.80;99.90
4725;DHT22;2376;53.544;10.226;2023-02-19T16:34:38;9.70;99.90
4725;DHT22;2376;53.544;10.226;2023-02-19T16:37:31;9.70;99.90
4725;DHT22;2376;53.544;10.226;2023-02-19T16:43:25;9.60;99.90
4725;DHT22;2376;53.544;10.226;2023-02-19T16:45:53;9.60;99.90
4725;DHT22;2376;53.544;10.226;2023-02-19T16:48:22;9.60;99.90
4725;DHT22;2376;53.544;10.226;2023-02-19T16:50:49;9.70;99.90